43G weather

Belleville Airport
Belleville, Michigan, United States

Public forecast

Using degrees Fahrenheit for public forecast. Weather courtesy of forecast.io.

Closest aviation weather report (METAR) to Belleville Airport

Closest report is Willow Run Airport, 3.7 nm (6.9 km) N. Retrieved 2020/02/17 16:53 UTC (1 hour ago):

KYIP 171653Z 09009KT 10SM SCT090 01/M06 A3025 RMK AO2 SLP249 T00111056

Closest aviation forecast (TAF) to Belleville Airport

Closest forecast is Willow Run Airport, 3.7 nm (6.9 km) N. Retrieved 2020/02/17 12:22 UTC (6 hours ago):

TAF KYIP 171120Z 1712/1812 06004KT P6SM BKN100 FM171500 11007KT P6SM FEW020 BKN150 FM172200 13012KT P6SM OVC070 FM180000 13012KT 4SM -RASN BR OVC015 FM180300 14011KT 1 1/2SM -RA BR OVC008 FM180800 20010KT 4SM BR OVC010